sensor_id;sensor_type;location;lat;lon;timestamp;P1;durP1;ratioP1;P2;durP2;ratioP2
67889;SDS011;54685;52.082;5.426;2023-04-21T00:00:40;17.42;;;11.73;;
67889;SDS011;54685;52.082;5.426;2023-04-21T00:03:08;16.70;;;11.10;;
67889;SDS011;54685;52.082;5.426;2023-04-21T00:05:35;14.85;;;11.48;;
67889;SDS011;54685;52.082;5.426;2023-04-21T00:08:03;16.67;;;10.75;;
67889;SDS011;54685;52.082;5.426;2023-04-21T00:10:31;16.75;;;12.07;;
67889;SDS011;54685;52.082;5.426;2023-04-21T00:12:58;18.65;;;12.35;;
67889;SDS011;54685;52.082;5.426;2023-04-21T00:15:24;15.38;;;11.82;;
67889;SDS011;54685;52.082;5.426;2023-04-21T00:17:51;19.13;;;13.20;;
67889;SDS011;54685;52.082;5.426;2023-04-21T00:20:18;21.05;;;13.63;;
67889;SDS011;54685;52.082;5.426;2023-04-21T00:22:45;18.92;;;13.60;;
67889;SDS011;54685;52.082;5.426;2023-04-21T00:25:12;19.52;;;13.18;;
67889;SDS011;54685;52.082;5.426;2023-04-21T00:27:40;16.15;;;12.20;;
67889;SDS011;54685;52.082;5.426;2023-04-21T00:30:07;19.40;;;13.90;;
67889;SDS011;54685;52.082;5.426;2023-04-21T00:32:35;19.48;;;13.88;;
67889;SDS011;54685;52.082;5.426;2023-04-21T00:35:02;18.48;;;12.73;;
67889;SDS011;54685;52.082;5.426;2023-04-21T00:37:29;18.75;;;13.15;;
67889;SDS011;54685;52.082;5.426;2023-04-21T00:39:59;22.35;;;13.43;;
67889;SDS011;54685;52.082;5.426;2023-04-21T00:42:26;18.83;;;13.85;;
67889;SDS011;54685;52.082;5.426;2023-04-21T00:44:53;20.00;;;14.88;;
67889;SDS011;54685;52.082;5.426;2023-04-21T00:47:19;17.30;;;13.15;;
67889;SDS011;54685;52.082;5.426;2023-04-21T00:49:48;22.33;;;15.20;;
67889;SDS011;54685;52.082;5.426;2023-04-21T00:52:16;18.38;;;14.45;;
67889;SDS011;54685;52.082;5.426;2023-04-21T00:54:43;24.40;;;15.30;;
67889;SDS011;54685;52.082;5.426;2023-04-21T00:57:11;21.67;;;15.48;;
67889;SDS011;54685;52.082;5.426;2023-04-21T00:59:38;20.48;;;15.73;;
67889;SDS011;54685;52.082;5.426;2023-04-21T01:02:04;20.73;;;15.50;;
67889;SDS011;54685;52.082;5.426;2023-04-21T01:04:32;19.13;;;15.25;;
67889;SDS011;54685;52.082;5.426;2023-04-21T01:07:04;25.83;;;16.73;;
67889;SDS011;54685;52.082;5.426;2023-04-21T01:09:38;22.83;;;15.98;;
67889;SDS011;54685;52.082;5.426;2023-04-21T01:12:07;21.15;;;15.25;;
67889;SDS011;54685;52.082;5.426;2023-04-21T01:14:35;24.73;;;15.68;;
67889;SDS011;54685;52.082;5.426;2023-04-21T01:17:03;28.80;;;18.05;;
67889;SDS011;54685;52.082;5.426;2023-04-21T01:19:31;23.05;;;16.45;;
67889;SDS011;54685;52.082;5.426;2023-04-21T01:22:05;25.60;;;18.58;;
67889;SDS011;54685;52.082;5.426;2023-04-21T01:24:37;24.70;;;17.90;;
67889;SDS011;54685;52.082;5.426;2023-04-21T01:27:13;27.50;;;17.90;;
67889;SDS011;54685;52.082;5.426;2023-04-21T01:29:44;30.92;;;18.60;;
67889;SDS011;54685;52.082;5.426;2023-04-21T01:32:24;28.63;;;18.15;;
67889;SDS011;54685;52.082;5.426;2023-04-21T01:34:55;33.55;;;19.88;;
67889;SDS011;54685;52.082;5.426;2023-04-21T01:37:29;29.85;;;19.40;;
67889;SDS011;54685;52.082;5.426;2023-04-21T01:39:58;27.88;;;19.10;;
67889;SDS011;54685;52.082;5.426;2023-04-21T01:42:26;23.88;;;17.67;;
67889;SDS011;54685;52.082;5.426;2023-04-21T01:44:56;27.70;;;19.63;;
67889;SDS011;54685;52.082;5.426;2023-04-21T01:47:23;30.80;;;20.73;;
67889;SDS011;54685;52.082;5.426;2023-04-21T01:49:54;24.83;;;17.92;;
67889;SDS011;54685;52.082;5.426;2023-04-21T01:52:21;30.63;;;18.25;;
67889;SDS011;54685;52.082;5.426;2023-04-21T01:54:51;27.85;;;20.25;;
67889;SDS011;54685;52.082;5.426;2023-04-21T01:57:18;30.42;;;20.20;;
67889;SDS011;54685;52.082;5.426;2023-04-21T01:59:45;28.75;;;21.25;;
67889;SDS011;54685;52.082;5.426;2023-04-21T02:02:13;24.25;;;18.83;;
67889;SDS011;54685;52.082;5.426;2023-04-21T02:04:40;26.40;;;19.45;;
67889;SDS011;54685;52.082;5.426;2023-04-21T02:07:07;32.22;;;19.60;;
67889;SDS011;54685;52.082;5.426;2023-04-21T02:09:34;34.97;;;22.23;;
67889;SDS011;54685;52.082;5.426;2023-04-21T02:12:01;26.83;;;19.25;;
67889;SDS011;54685;52.082;5.426;2023-04-21T02:14:28;28.02;;;19.83;;
67889;SDS011;54685;52.082;5.426;2023-04-21T02:16:55;33.80;;;20.77;;
67889;SDS011;54685;52.082;5.426;2023-04-21T02:19:22;26.83;;;19.60;;
67889;SDS011;54685;52.082;5.426;2023-04-21T02:21:49;31.33;;;22.38;;
67889;SDS011;54685;52.082;5.426;2023-04-21T02:24:16;27.35;;;19.95;;
67889;SDS011;54685;52.082;5.426;2023-04-21T02:26:44;29.55;;;20.10;;
67889;SDS011;54685;52.082;5.426;2023-04-21T02:29:13;28.65;;;20.33;;
67889;SDS011;54685;52.082;5.426;2023-04-21T02:31:39;30.80;;;22.38;;
67889;SDS011;54685;52.082;5.426;2023-04-21T02:34:24;30.30;;;19.90;;
67889;SDS011;54685;52.082;5.426;2023-04-21T02:36:51;27.83;;;19.45;;
67889;SDS011;54685;52.082;5.426;2023-04-21T02:39:18;34.95;;;22.02;;
67889;SDS011;54685;52.082;5.426;2023-04-21T02:41:45;26.15;;;20.40;;
67889;SDS011;54685;52.082;5.426;2023-04-21T02:44:12;27.33;;;19.50;;
67889;SDS011;54685;52.082;5.426;2023-04-21T02:46:42;31.38;;;20.92;;
67889;SDS011;54685;52.082;5.426;2023-04-21T02:49:09;28.67;;;20.58;;
67889;SDS011;54685;52.082;5.426;2023-04-21T02:51:36;32.60;;;22.30;;
67889;SDS011;54685;52.082;5.426;2023-04-21T02:54:03;30.10;;;22.38;;
67889;SDS011;54685;52.082;5.426;2023-04-21T02:56:30;33.55;;;22.75;;
67889;SDS011;54685;52.082;5.426;2023-04-21T02:58:57;34.97;;;23.52;;
67889;SDS011;54685;52.082;5.426;2023-04-21T03:01:24;30.77;;;23.70;;
67889;SDS011;54685;52.082;5.426;2023-04-21T03:03:50;34.95;;;21.52;;
67889;SDS011;54685;52.082;5.426;2023-04-21T03:06:17;32.78;;;22.25;;
67889;SDS011;54685;52.082;5.426;2023-04-21T03:08:44;34.75;;;22.17;;
67889;SDS011;54685;52.082;5.426;2023-04-21T03:11:11;35.58;;;24.42;;
67889;SDS011;54685;52.082;5.426;2023-04-21T03:13:38;32.13;;;23.40;;
67889;SDS011;54685;52.082;5.426;2023-04-21T03:16:06;34.63;;;23.23;;
67889;SDS011;54685;52.082;5.426;2023-04-21T03:18:34;30.50;;;21.35;;
67889;SDS011;54685;52.082;5.426;2023-04-21T03:21:01;29.38;;;22.42;;
67889;SDS011;54685;52.082;5.426;2023-04-21T03:23:29;26.90;;;19.65;;
67889;SDS011;54685;52.082;5.426;2023-04-21T03:25:55;31.33;;;22.10;;
67889;SDS011;54685;52.082;5.426;2023-04-21T03:28:22;30.38;;;22.08;;
67889;SDS011;54685;52.082;5.426;2023-04-21T03:30:50;32.28;;;23.27;;
67889;SDS011;54685;52.082;5.426;2023-04-21T03:33:17;29.35;;;20.80;;
67889;SDS011;54685;52.082;5.426;2023-04-21T03:35:44;31.13;;;21.23;;
67889;SDS011;54685;52.082;5.426;2023-04-21T03:38:10;27.60;;;21.25;;
67889;SDS011;54685;52.082;5.426;2023-04-21T03:40:37;27.98;;;19.77;;
67889;SDS011;54685;52.082;5.426;2023-04-21T03:43:04;28.88;;;21.25;;
67889;SDS011;54685;52.082;5.426;2023-04-21T03:45:33;35.35;;;22.75;;
67889;SDS011;54685;52.082;5.426;2023-04-21T03:48:00;29.55;;;21.65;;
67889;SDS011;54685;52.082;5.426;2023-04-21T03:50:28;25.52;;;19.40;;
67889;SDS011;54685;52.082;5.426;2023-04-21T03:52:55;32.22;;;22.15;;
67889;SDS011;54685;52.082;5.426;2023-04-21T03:55:22;27.20;;;20.15;;
67889;SDS011;54685;52.082;5.426;2023-04-21T03:57:49;30.80;;;21.38;;
67889;SDS011;54685;52.082;5.426;2023-04-21T04:00:16;32.40;;;22.77;;
67889;SDS011;54685;52.082;5.426;2023-04-21T04:02:43;29.25;;;21.10;;
67889;SDS011;54685;52.082;5.426;2023-04-21T04:05:10;28.67;;;20.35;;
67889;SDS011;54685;52.082;5.426;2023-04-21T04:07:37;23.35;;;18.15;;
67889;SDS011;54685;52.082;5.426;2023-04-21T04:10:04;23.65;;;19.23;;
67889;SDS011;54685;52.082;5.426;2023-04-21T04:12:32;26.02;;;19.20;;
67889;SDS011;54685;52.082;5.426;2023-04-21T04:14:58;35.13;;;20.27;;
67889;SDS011;54685;52.082;5.426;2023-04-21T04:17:25;28.35;;;21.45;;
67889;SDS011;54685;52.082;5.426;2023-04-21T04:19:55;32.10;;;21.33;;
67889;SDS011;54685;52.082;5.426;2023-04-21T04:22:24;26.93;;;19.73;;
67889;SDS011;54685;52.082;5.426;2023-04-21T04:24:52;33.95;;;20.10;;
67889;SDS011;54685;52.082;5.426;2023-04-21T04:27:19;32.92;;;22.20;;
67889;SDS011;54685;52.082;5.426;2023-04-21T04:29:46;26.05;;;20.00;;
67889;SDS011;54685;52.082;5.426;2023-04-21T04:32:14;25.80;;;19.65;;
67889;SDS011;54685;52.082;5.426;2023-04-21T04:34:41;23.70;;;18.75;;
67889;SDS011;54685;52.082;5.426;2023-04-21T04:37:08;23.65;;;18.60;;
67889;SDS011;54685;52.082;5.426;2023-04-21T04:39:36;26.65;;;19.83;;
67889;SDS011;54685;52.082;5.426;2023-04-21T04:42:06;27.15;;;18.83;;
67889;SDS011;54685;52.082;5.426;2023-04-21T04:44:39;27.20;;;20.48;;
67889;SDS011;54685;52.082;5.426;2023-04-21T04:47:07;26.38;;;18.95;;
67889;SDS011;54685;52.082;5.426;2023-04-21T04:49:34;31.50;;;20.83;;
67889;SDS011;54685;52.082;5.426;2023-04-21T04:52:01;27.52;;;19.90;;
67889;SDS011;54685;52.082;5.426;2023-04-21T04:54:28;26.67;;;19.90;;
67889;SDS011;54685;52.082;5.426;2023-04-21T04:56:55;28.73;;;21.38;;
67889;SDS011;54685;52.082;5.426;2023-04-21T04:59:23;25.50;;;20.23;;
67889;SDS011;54685;52.082;5.426;2023-04-21T05:01:53;30.27;;;22.10;;
67889;SDS011;54685;52.082;5.426;2023-04-21T05:04:20;33.08;;;23.10;;
67889;SDS011;54685;52.082;5.426;2023-04-21T05:06:48;35.67;;;23.05;;
67889;SDS011;54685;52.082;5.426;2023-04-21T05:09:15;28.67;;;20.52;;
67889;SDS011;54685;52.082;5.426;2023-04-21T05:11:42;34.42;;;23.27;;
67889;SDS011;54685;52.082;5.426;2023-04-21T05:14:09;27.05;;;21.98;;
67889;SDS011;54685;52.082;5.426;2023-04-21T05:16:35;32.80;;;23.20;;
67889;SDS011;54685;52.082;5.426;2023-04-21T05:19:02;31.90;;;22.40;;
67889;SDS011;54685;52.082;5.426;2023-04-21T05:21:29;28.85;;;21.95;;
67889;SDS011;54685;52.082;5.426;2023-04-21T05:23:57;34.08;;;24.90;;
67889;SDS011;54685;52.082;5.426;2023-04-21T05:26:24;35.65;;;24.10;;
67889;SDS011;54685;52.082;5.426;2023-04-21T05:28:55;31.65;;;23.80;;
67889;SDS011;54685;52.082;5.426;2023-04-21T05:31:23;31.95;;;25.20;;
67889;SDS011;54685;52.082;5.426;2023-04-21T05:33:50;35.55;;;25.50;;
67889;SDS011;54685;52.082;5.426;2023-04-21T05:36:20;35.25;;;26.05;;
67889;SDS011;54685;52.082;5.426;2023-04-21T05:38:47;35.08;;;25.30;;
67889;SDS011;54685;52.082;5.426;2023-04-21T05:41:13;39.47;;;26.67;;
67889;SDS011;54685;52.082;5.426;2023-04-21T05:43:41;37.25;;;26.45;;
67889;SDS011;54685;52.082;5.426;2023-04-21T05:46:08;36.70;;;26.23;;
67889;SDS011;54685;52.082;5.426;2023-04-21T05:48:36;38.13;;;26.30;;
67889;SDS011;54685;52.082;5.426;2023-04-21T05:53:37;31.20;;;23.35;;
67889;SDS011;54685;52.082;5.426;2023-04-21T05:56:05;37.45;;;25.33;;
67889;SDS011;54685;52.082;5.426;2023-04-21T05:58:33;33.53;;;25.52;;
67889;SDS011;54685;52.082;5.426;2023-04-21T06:01:01;37.15;;;27.27;;
67889;SDS011;54685;52.082;5.426;2023-04-21T06:03:31;32.40;;;25.85;;
67889;SDS011;54685;52.082;5.426;2023-04-21T06:05:59;37.22;;;28.23;;
67889;SDS011;54685;52.082;5.426;2023-04-21T06:08:27;37.17;;;26.80;;
67889;SDS011;54685;52.082;5.426;2023-04-21T06:10:54;37.38;;;25.85;;
67889;SDS011;54685;52.082;5.426;2023-04-21T06:13:21;34.90;;;25.65;;
67889;SDS011;54685;52.082;5.426;2023-04-21T06:15:48;35.20;;;27.23;;
67889;SDS011;54685;52.082;5.426;2023-04-21T06:18:14;36.03;;;25.27;;
67889;SDS011;54685;52.082;5.426;2023-04-21T06:20:42;36.70;;;26.75;;
67889;SDS011;54685;52.082;5.426;2023-04-21T06:23:15;36.67;;;26.98;;
67889;SDS011;54685;52.082;5.426;2023-04-21T06:25:42;36.63;;;27.83;;
67889;SDS011;54685;52.082;5.426;2023-04-21T06:28:09;40.50;;;27.38;;
67889;SDS011;54685;52.082;5.426;2023-04-21T06:30:36;41.90;;;26.85;;
67889;SDS011;54685;52.082;5.426;2023-04-21T06:33:03;34.13;;;26.20;;
67889;SDS011;54685;52.082;5.426;2023-04-21T06:35:32;39.45;;;27.20;;
67889;SDS011;54685;52.082;5.426;2023-04-21T06:37:59;35.05;;;26.70;;
67889;SDS011;54685;52.082;5.426;2023-04-21T06:40:25;37.67;;;27.77;;
67889;SDS011;54685;52.082;5.426;2023-04-21T06:42:52;36.83;;;28.15;;
67889;SDS011;54685;52.082;5.426;2023-04-21T06:45:19;35.83;;;28.00;;
67889;SDS011;54685;52.082;5.426;2023-04-21T06:47:46;38.50;;;28.20;;
67889;SDS011;54685;52.082;5.426;2023-04-21T06:50:13;42.60;;;27.45;;
67889;SDS011;54685;52.082;5.426;2023-04-21T06:52:40;38.20;;;28.70;;
67889;SDS011;54685;52.082;5.426;2023-04-21T06:55:07;41.03;;;29.10;;
67889;SDS011;54685;52.082;5.426;2023-04-21T06:57:35;36.70;;;28.15;;
67889;SDS011;54685;52.082;5.426;2023-04-21T07:00:02;44.38;;;31.05;;
67889;SDS011;54685;52.082;5.426;2023-04-21T07:02:31;37.45;;;28.02;;
67889;SDS011;54685;52.082;5.426;2023-04-21T07:05:05;40.83;;;29.13;;
67889;SDS011;54685;52.082;5.426;2023-04-21T07:07:32;42.38;;;30.45;;
67889;SDS011;54685;52.082;5.426;2023-04-21T07:10:09;38.20;;;28.15;;
67889;SDS011;54685;52.082;5.426;2023-04-21T07:15:28;36.40;;;27.93;;
67889;SDS011;54685;52.082;5.426;2023-04-21T07:18:39;38.97;;;28.90;;
67889;SDS011;54685;52.082;5.426;2023-04-21T07:21:07;39.70;;;28.38;;
67889;SDS011;54685;52.082;5.426;2023-04-21T07:23:34;35.92;;;27.65;;
67889;SDS011;54685;52.082;5.426;2023-04-21T07:26:01;38.85;;;28.17;;
67889;SDS011;54685;52.082;5.426;2023-04-21T07:28:27;33.92;;;25.65;;
67889;SDS011;54685;52.082;5.426;2023-04-21T07:30:54;33.90;;;25.80;;
67889;SDS011;54685;52.082;5.426;2023-04-21T07:33:22;37.03;;;26.15;;
67889;SDS011;54685;52.082;5.426;2023-04-21T07:35:48;37.15;;;26.90;;
67889;SDS011;54685;52.082;5.426;2023-04-21T07:38:15;35.95;;;26.98;;
67889;SDS011;54685;52.082;5.426;2023-04-21T07:40:46;37.67;;;28.73;;
67889;SDS011;54685;52.082;5.426;2023-04-21T07:43:27;35.63;;;27.75;;
67889;SDS011;54685;52.082;5.426;2023-04-21T07:46:34;36.58;;;27.25;;
67889;SDS011;54685;52.082;5.426;2023-04-21T07:54:43;36.20;;;27.67;;
67889;SDS011;54685;52.082;5.426;2023-04-21T07:57:10;33.97;;;26.58;;
67889;SDS011;54685;52.082;5.426;2023-04-21T07:59:37;36.08;;;27.23;;
67889;SDS011;54685;52.082;5.426;2023-04-21T08:02:04;35.25;;;26.98;;
67889;SDS011;54685;52.082;5.426;2023-04-21T08:04:31;29.70;;;25.48;;
67889;SDS011;54685;52.082;5.426;2023-04-21T08:06:58;34.53;;;27.00;;
67889;SDS011;54685;52.082;5.426;2023-04-21T08:09:26;41.08;;;27.27;;
67889;SDS011;54685;52.082;5.426;2023-04-21T08:11:53;34.25;;;26.25;;
67889;SDS011;54685;52.082;5.426;2023-04-21T08:14:20;31.40;;;25.10;;
67889;SDS011;54685;52.082;5.426;2023-04-21T08:16:47;29.80;;;24.38;;
67889;SDS011;54685;52.082;5.426;2023-04-21T08:19:15;32.35;;;24.52;;
67889;SDS011;54685;52.082;5.426;2023-04-21T08:21:44;35.30;;;25.20;;
67889;SDS011;54685;52.082;5.426;2023-04-21T08:24:11;28.73;;;24.42;;
67889;SDS011;54685;52.082;5.426;2023-04-21T08:26:39;31.15;;;25.25;;
67889;SDS011;54685;52.082;5.426;2023-04-21T08:30:27;30.95;;;24.70;;
67889;SDS011;54685;52.082;5.426;2023-04-21T08:32:54;32.35;;;26.10;;
67889;SDS011;54685;52.082;5.426;2023-04-21T08:35:40;31.95;;;25.80;;
67889;SDS011;54685;52.082;5.426;2023-04-21T08:38:24;34.38;;;25.95;;
67889;SDS011;54685;52.082;5.426;2023-04-21T08:41:13;29.63;;;23.33;;
67889;SDS011;54685;52.082;5.426;2023-04-21T08:43:57;32.67;;;24.23;;
67889;SDS011;54685;52.082;5.426;2023-04-21T08:46:42;30.73;;;24.67;;
67889;SDS011;54685;52.082;5.426;2023-04-21T08:59:01;31.65;;;24.67;;
67889;SDS011;54685;52.082;5.426;2023-04-21T09:01:29;38.08;;;25.45;;
67889;SDS011;54685;52.082;5.426;2023-04-21T09:04:16;27.80;;;23.50;;
67889;SDS011;54685;52.082;5.426;2023-04-21T09:06:44;30.13;;;24.30;;
67889;SDS011;54685;52.082;5.426;2023-04-21T09:20:38;30.52;;;23.05;;
67889;SDS011;54685;52.082;5.426;2023-04-21T09:26:43;26.08;;;21.83;;
67889;SDS011;54685;52.082;5.426;2023-04-21T09:29:16;25.60;;;21.98;;
67889;SDS011;54685;52.082;5.426;2023-04-21T09:35:09;25.20;;;21.10;;
67889;SDS011;54685;52.082;5.426;2023-04-21T09:38:25;27.20;;;22.63;;
67889;SDS011;54685;52.082;5.426;2023-04-21T09:44:09;28.00;;;23.10;;
67889;SDS011;54685;52.082;5.426;2023-04-21T09:46:36;27.77;;;22.30;;
67889;SDS011;54685;52.082;5.426;2023-04-21T09:49:09;26.60;;;21.23;;
67889;SDS011;54685;52.082;5.426;2023-04-21T09:51:38;25.48;;;20.23;;
67889;SDS011;54685;52.082;5.426;2023-04-21T09:54:14;22.75;;;19.27;;
67889;SDS011;54685;52.082;5.426;2023-04-21T09:56:49;22.33;;;18.77;;
67889;SDS011;54685;52.082;5.426;2023-04-21T09:59:19;23.60;;;20.08;;
67889;SDS011;54685;52.082;5.426;2023-04-21T10:01:58;25.25;;;21.20;;
67889;SDS011;54685;52.082;5.426;2023-04-21T10:04:27;24.02;;;20.02;;
67889;SDS011;54685;52.082;5.426;2023-04-21T10:06:58;24.05;;;20.02;;
67889;SDS011;54685;52.082;5.426;2023-04-21T10:09:26;21.55;;;18.60;;
67889;SDS011;54685;52.082;5.426;2023-04-21T10:12:06;23.67;;;18.63;;
67889;SDS011;54685;52.082;5.426;2023-04-21T10:14:35;23.05;;;19.05;;
67889;SDS011;54685;52.082;5.426;2023-04-21T10:17:05;25.30;;;20.27;;
67889;SDS011;54685;52.082;5.426;2023-04-21T10:19:46;24.42;;;19.52;;
67889;SDS011;54685;52.082;5.426;2023-04-21T10:22:22;22.75;;;18.40;;
67889;SDS011;54685;52.082;5.426;2023-04-21T10:24:56;24.25;;;18.25;;
67889;SDS011;54685;52.082;5.426;2023-04-21T10:30:22;19.38;;;17.27;;
67889;SDS011;54685;52.082;5.426;2023-04-21T10:33:01;20.75;;;17.83;;
67889;SDS011;54685;52.082;5.426;2023-04-21T10:38:33;22.85;;;17.88;;
67889;SDS011;54685;52.082;5.426;2023-04-21T10:41:26;25.20;;;19.98;;
67889;SDS011;54685;52.082;5.426;2023-04-21T10:44:10;22.85;;;20.02;;
67889;SDS011;54685;52.082;5.426;2023-04-21T10:46:44;28.33;;;20.23;;
67889;SDS011;54685;52.082;5.426;2023-04-21T10:49:22;22.02;;;18.67;;
67889;SDS011;54685;52.082;5.426;2023-04-21T10:57:31;23.60;;;19.55;;
67889;SDS011;54685;52.082;5.426;2023-04-21T10:59:59;24.67;;;18.88;;
67889;SDS011;54685;52.082;5.426;2023-04-21T11:02:26;23.27;;;19.73;;
67889;SDS011;54685;52.082;5.426;2023-04-21T11:04:53;22.00;;;18.63;;
67889;SDS011;54685;52.082;5.426;2023-04-21T11:07:21;29.08;;;18.58;;
67889;SDS011;54685;52.082;5.426;2023-04-21T11:09:58;20.97;;;18.33;;
67889;SDS011;54685;52.082;5.426;2023-04-21T11:12:28;22.70;;;18.75;;
67889;SDS011;54685;52.082;5.426;2023-04-21T11:15:05;21.83;;;18.40;;
67889;SDS011;54685;52.082;5.426;2023-04-21T11:20:25;23.47;;;17.93;;
67889;SDS011;54685;52.082;5.426;2023-04-21T11:22:52;20.98;;;17.88;;
67889;SDS011;54685;52.082;5.426;2023-04-21T11:25:22;22.95;;;18.77;;
67889;SDS011;54685;52.082;5.426;2023-04-21T11:27:52;21.17;;;17.50;;
67889;SDS011;54685;52.082;5.426;2023-04-21T11:30:29;23.75;;;19.40;;
67889;SDS011;54685;52.082;5.426;2023-04-21T11:33:00;24.88;;;18.25;;
67889;SDS011;54685;52.082;5.426;2023-04-21T11:35:27;23.42;;;19.17;;
67889;SDS011;54685;52.082;5.426;2023-04-21T11:37:54;21.05;;;18.75;;
67889;SDS011;54685;52.082;5.426;2023-04-21T11:40:21;24.27;;;18.27;;
67889;SDS011;54685;52.082;5.426;2023-04-21T11:42:48;26.45;;;21.27;;
67889;SDS011;54685;52.082;5.426;2023-04-21T11:45:18;24.75;;;19.63;;
67889;SDS011;54685;52.082;5.426;2023-04-21T11:54:39;23.92;;;19.73;;
67889;SDS011;54685;52.082;5.426;2023-04-21T11:57:12;26.95;;;20.83;;
67889;SDS011;54685;52.082;5.426;2023-04-21T12:00:38;23.23;;;18.20;;
67889;SDS011;54685;52.082;5.426;2023-04-21T12:03:12;22.48;;;18.08;;
67889;SDS011;54685;52.082;5.426;2023-04-21T12:05:39;20.98;;;16.35;;
67889;SDS011;54685;52.082;5.426;2023-04-21T12:08:11;23.15;;;17.88;;
67889;SDS011;54685;52.082;5.426;2023-04-21T12:10:58;22.33;;;17.85;;
67889;SDS011;54685;52.082;5.426;2023-04-21T12:13:28;23.05;;;18.63;;
67889;SDS011;54685;52.082;5.426;2023-04-21T12:15:56;20.90;;;15.63;;
67889;SDS011;54685;52.082;5.426;2023-04-21T12:18:39;19.70;;;15.90;;
67889;SDS011;54685;52.082;5.426;2023-04-21T12:21:08;20.60;;;15.27;;
67889;SDS011;54685;52.082;5.426;2023-04-21T12:23:49;18.38;;;14.95;;
67889;SDS011;54685;52.082;5.426;2023-04-21T12:29:34;17.48;;;14.20;;
67889;SDS011;54685;52.082;5.426;2023-04-21T12:32:03;18.02;;;15.27;;
67889;SDS011;54685;52.082;5.426;2023-04-21T12:34:39;15.80;;;13.98;;
67889;SDS011;54685;52.082;5.426;2023-04-21T12:46:23;20.88;;;16.85;;
67889;SDS011;54685;52.082;5.426;2023-04-21T12:51:50;22.85;;;16.30;;
67889;SDS011;54685;52.082;5.426;2023-04-21T12:57:23;22.88;;;17.85;;
67889;SDS011;54685;52.082;5.426;2023-04-21T13:02:47;24.08;;;17.50;;
67889;SDS011;54685;52.082;5.426;2023-04-21T13:05:23;26.33;;;19.40;;
67889;SDS011;54685;52.082;5.426;2023-04-21T13:10:42;26.35;;;19.95;;
67889;SDS011;54685;52.082;5.426;2023-04-21T13:13:11;24.05;;;18.95;;
67889;SDS011;54685;52.082;5.426;2023-04-21T13:15:37;24.20;;;18.38;;
67889;SDS011;54685;52.082;5.426;2023-04-21T13:18:04;23.70;;;18.55;;
67889;SDS011;54685;52.082;5.426;2023-04-21T13:20:32;23.33;;;19.05;;
67889;SDS011;54685;52.082;5.426;2023-04-21T13:22:59;21.00;;;18.20;;
67889;SDS011;54685;52.082;5.426;2023-04-21T13:25:25;23.58;;;18.05;;
67889;SDS011;54685;52.082;5.426;2023-04-21T13:27:53;23.52;;;18.23;;
67889;SDS011;54685;52.082;5.426;2023-04-21T13:30:20;24.52;;;18.65;;
67889;SDS011;54685;52.082;5.426;2023-04-21T13:32:47;25.10;;;19.00;;
67889;SDS011;54685;52.082;5.426;2023-04-21T13:35:14;24.27;;;18.27;;
67889;SDS011;54685;52.082;5.426;2023-04-21T13:37:41;25.77;;;19.90;;
67889;SDS011;54685;52.082;5.426;2023-04-21T13:40:14;24.50;;;19.77;;
67889;SDS011;54685;52.082;5.426;2023-04-21T13:42:41;24.55;;;19.58;;
67889;SDS011;54685;52.082;5.426;2023-04-21T13:45:08;25.83;;;20.17;;
67889;SDS011;54685;52.082;5.426;2023-04-21T13:50:28;30.85;;;21.58;;
67889;SDS011;54685;52.082;5.426;2023-04-21T13:52:54;27.58;;;20.30;;
67889;SDS011;54685;52.082;5.426;2023-04-21T13:55:24;25.02;;;19.98;;
67889;SDS011;54685;52.082;5.426;2023-04-21T13:57:51;24.10;;;19.92;;
67889;SDS011;54685;52.082;5.426;2023-04-21T14:00:18;25.25;;;19.33;;
67889;SDS011;54685;52.082;5.426;2023-04-21T14:02:45;26.55;;;19.42;;
67889;SDS011;54685;52.082;5.426;2023-04-21T14:05:13;23.45;;;19.15;;
67889;SDS011;54685;52.082;5.426;2023-04-21T14:07:40;21.55;;;17.90;;
67889;SDS011;54685;52.082;5.426;2023-04-21T14:10:08;22.13;;;17.40;;
67889;SDS011;54685;52.082;5.426;2023-04-21T14:12:36;20.83;;;17.13;;
67889;SDS011;54685;52.082;5.426;2023-04-21T14:15:04;21.38;;;17.20;;
67889;SDS011;54685;52.082;5.426;2023-04-21T14:17:32;22.67;;;17.85;;
67889;SDS011;54685;52.082;5.426;2023-04-21T14:22:51;21.35;;;16.77;;
67889;SDS011;54685;52.082;5.426;2023-04-21T14:25:18;16.85;;;14.90;;
67889;SDS011;54685;52.082;5.426;2023-04-21T14:27:45;20.45;;;15.40;;
67889;SDS011;54685;52.082;5.426;2023-04-21T14:30:12;20.13;;;15.45;;
67889;SDS011;54685;52.082;5.426;2023-04-21T14:32:39;23.08;;;16.42;;
67889;SDS011;54685;52.082;5.426;2023-04-21T14:35:13;21.38;;;14.80;;
67889;SDS011;54685;52.082;5.426;2023-04-21T14:37:40;17.42;;;14.50;;
67889;SDS011;54685;52.082;5.426;2023-04-21T14:40:07;16.10;;;14.15;;
67889;SDS011;54685;52.082;5.426;2023-04-21T14:42:35;17.45;;;13.07;;
67889;SDS011;54685;52.082;5.426;2023-04-21T14:45:05;20.08;;;13.38;;
67889;SDS011;54685;52.082;5.426;2023-04-21T14:47:33;15.07;;;12.70;;
67889;SDS011;54685;52.082;5.426;2023-04-21T14:50:18;15.32;;;12.30;;
67889;SDS011;54685;52.082;5.426;2023-04-21T14:52:45;14.93;;;12.50;;
67889;SDS011;54685;52.082;5.426;2023-04-21T14:55:20;16.02;;;12.77;;
67889;SDS011;54685;52.082;5.426;2023-04-21T14:57:48;14.00;;;12.50;;
67889;SDS011;54685;52.082;5.426;2023-04-21T15:00:17;20.48;;;12.98;;
67889;SDS011;54685;52.082;5.426;2023-04-21T15:02:44;15.88;;;13.27;;
67889;SDS011;54685;52.082;5.426;2023-04-21T15:07:44;18.25;;;13.73;;
67889;SDS011;54685;52.082;5.426;2023-04-21T15:10:26;17.52;;;13.30;;
67889;SDS011;54685;52.082;5.426;2023-04-21T15:12:55;18.63;;;13.90;;
67889;SDS011;54685;52.082;5.426;2023-04-21T15:16:13;21.40;;;14.85;;
67889;SDS011;54685;52.082;5.426;2023-04-21T15:22:02;17.02;;;14.90;;
67889;SDS011;54685;52.082;5.426;2023-04-21T15:25:17;18.52;;;13.13;;
67889;SDS011;54685;52.082;5.426;2023-04-21T15:27:44;17.45;;;14.60;;
67889;SDS011;54685;52.082;5.426;2023-04-21T15:30:12;16.77;;;14.35;;
67889;SDS011;54685;52.082;5.426;2023-04-21T15:32:39;19.83;;;14.32;;
67889;SDS011;54685;52.082;5.426;2023-04-21T15:35:06;20.40;;;14.45;;
67889;SDS011;54685;52.082;5.426;2023-04-21T15:37:34;19.90;;;14.70;;
67889;SDS011;54685;52.082;5.426;2023-04-21T15:40:02;19.77;;;15.48;;
67889;SDS011;54685;52.082;5.426;2023-04-21T15:42:30;20.13;;;15.15;;
67889;SDS011;54685;52.082;5.426;2023-04-21T15:44:57;19.08;;;15.18;;
67889;SDS011;54685;52.082;5.426;2023-04-21T15:47:24;19.13;;;15.30;;
67889;SDS011;54685;52.082;5.426;2023-04-21T15:49:58;20.33;;;14.23;;
67889;SDS011;54685;52.082;5.426;2023-04-21T15:52:25;20.75;;;15.77;;
67889;SDS011;54685;52.082;5.426;2023-04-21T15:54:53;19.48;;;15.68;;
67889;SDS011;54685;52.082;5.426;2023-04-21T15:57:20;21.48;;;16.38;;
67889;SDS011;54685;52.082;5.426;2023-04-21T15:59:53;20.75;;;15.10;;
67889;SDS011;54685;52.082;5.426;2023-04-21T16:02:20;20.73;;;14.82;;
67889;SDS011;54685;52.082;5.426;2023-04-21T16:04:48;21.55;;;15.55;;
67889;SDS011;54685;52.082;5.426;2023-04-21T16:07:15;20.98;;;14.88;;
67889;SDS011;54685;52.082;5.426;2023-04-21T16:09:41;24.70;;;17.08;;
67889;SDS011;54685;52.082;5.426;2023-04-21T16:12:08;18.73;;;13.95;;
67889;SDS011;54685;52.082;5.426;2023-04-21T16:14:36;16.67;;;14.80;;
67889;SDS011;54685;52.082;5.426;2023-04-21T16:17:22;21.20;;;15.50;;